Columbus, Ohio
Traffic Map
Current Weather Conditions
Columbus, Ohio
Broken Clouds
Broken Clouds
-10°
Feels Like: -17°
Wind Chill: -17° Ceiling: 5000
Heat Index: -10° Visibility: 10mi
Dew Point: -14° Wind: 10mph
Humidity: 71% Direction: 250° (WSW)
Pressure: 30.05in Gusts: 0mph
Raw Report DataKCMH 110151Z 25009KT 10SM SCT035 BKN050 BKN140 M10/M14 A3005 RMK AO2 SNB0053E06 SLP190 P0000 T11001144
Traffic Incident Summary
Active as of:
Severity:
Category:
InformationThere was an issue retrieving the traffic information for this location. Please try a different location or try again shortly.
Advertisements
Track Severe Weather on mobile